createdAt,value
2019-02-15T00:04:41.782Z,13.34
2019-02-15T00:10:36.769Z,15.07
2019-02-15T00:16:31.773Z,14.34
2019-02-15T00:22:26.775Z,15.5
2019-02-15T00:28:21.785Z,15.21
2019-02-15T00:34:16.787Z,15.94
2019-02-15T00:40:11.798Z,13.99
2019-02-15T00:46:06.816Z,13.59
2019-02-15T00:52:01.797Z,14.44
2019-02-15T00:57:56.819Z,13.2
2019-02-15T01:03:51.786Z,12.83
2019-02-15T01:09:46.817Z,13.65
2019-02-15T01:15:41.804Z,12.89
2019-02-15T01:21:36.810Z,12.81
2019-02-15T01:27:31.802Z,11.78
2019-02-15T01:33:26.818Z,11.77
2019-02-15T01:39:21.851Z,9.98
2019-02-15T01:45:16.865Z,10.22
2019-02-15T01:51:11.840Z,11.03
2019-02-15T01:57:06.849Z,11.19
2019-02-15T02:03:01.902Z,13.6
2019-02-15T02:08:56.836Z,13.55
2019-02-15T02:14:51.846Z,14.18
2019-02-15T02:20:46.822Z,14.03
2019-02-15T02:26:41.853Z,13.6
2019-02-15T02:32:36.858Z,13.33
2019-02-15T02:38:31.894Z,13.24
2019-02-15T02:44:26.853Z,12.07
2019-02-15T02:50:21.857Z,13.31
2019-02-15T02:56:16.870Z,12.86
2019-02-15T03:02:11.872Z,11.86
2019-02-15T03:08:06.889Z,12.51
2019-02-15T03:14:11.038Z,12.47
2019-02-15T03:19:56.864Z,12
2019-02-15T03:25:51.886Z,12.26
2019-02-15T03:31:46.894Z,11.87
2019-02-15T03:37:41.906Z,13.24
2019-02-15T03:43:36.903Z,12.51
2019-02-15T03:49:31.882Z,11.79
2019-02-15T03:55:26.920Z,14.05
2019-02-15T04:01:21.890Z,11.59
2019-02-15T04:07:16.912Z,11.53
2019-02-15T04:13:11.908Z,11.39
2019-02-15T04:19:06.941Z,10.55
2019-02-15T04:25:01.912Z,11.05
2019-02-15T04:30:56.937Z,10.6
2019-02-15T04:36:51.915Z,9.62
2019-02-15T04:42:46.923Z,10.05
2019-02-15T04:48:41.996Z,11.53
2019-02-15T04:54:36.921Z,12.4
2019-02-15T05:00:31.919Z,13.24
2019-02-15T05:06:26.943Z,11.54
2019-02-15T05:12:21.929Z,12.4
2019-02-15T05:18:16.936Z,13.8
2019-02-15T05:24:11.945Z,15.55
2019-02-15T05:30:06.950Z,24.84
2019-02-15T05:36:01.941Z,18.15
2019-02-15T05:41:56.998Z,17.15
2019-02-15T05:47:51.983Z,14.95
2019-02-15T05:53:46.953Z,16.93
2019-02-15T05:59:41.984Z,60.55
2019-02-15T06:05:36.988Z,39.12
2019-02-15T06:11:31.959Z,29.31
2019-02-15T06:17:26.940Z,27.6
2019-02-15T06:23:21.958Z,18.28
2019-02-15T06:29:16.987Z,16.68
2019-02-15T06:35:11.985Z,16.1
2019-02-15T06:41:06.988Z,14.9
2019-02-15T06:47:01.973Z,16.9
2019-02-15T06:52:57.009Z,16.49
2019-02-15T06:58:51.982Z,14.98
2019-02-15T07:04:47.090Z,19.01
2019-02-15T07:10:41.995Z,16.64
2019-02-15T07:16:36.998Z,22.28
2019-02-15T07:22:32.053Z,28.44
2019-02-15T07:28:27.013Z,24.12
2019-02-15T07:34:22.001Z,27.41
2019-02-15T07:40:17.012Z,25.88
2019-02-15T07:46:12.012Z,36.08
2019-02-15T07:52:07.042Z,34.05
2019-02-15T07:58:02.043Z,41.48
2019-02-15T08:03:57.055Z,42.92
2019-02-15T08:09:52.034Z,35.36
2019-02-15T08:15:51.675Z,29.53
2019-02-15T08:21:42.078Z,30.87
2019-02-15T08:27:37.036Z,30.43
2019-02-15T08:33:32.064Z,29.62
2019-02-15T08:39:27.040Z,45.63
2019-02-15T08:45:22.040Z,103.78
2019-02-15T08:51:17.046Z,87.01
2019-02-15T08:57:12.070Z,122.36
2019-02-15T09:03:07.069Z,96.41
2019-02-15T09:09:02.086Z,57.29
2019-02-15T09:14:57.101Z,54.95
2019-02-15T09:20:52.054Z,30.38
2019-02-15T09:26:47.079Z,67.74
2019-02-15T09:32:42.068Z,51.97
2019-02-15T09:38:37.093Z,52.14
2019-02-15T09:44:32.085Z,57.71
2019-02-15T09:50:27.107Z,73.97
2019-02-15T09:56:22.065Z,86.3
2019-02-15T10:02:17.099Z,96.82
2019-02-15T10:08:12.115Z,108.03
2019-02-15T10:14:07.105Z,114.09
2019-02-15T10:20:02.099Z,124.37
2019-02-15T10:25:57.092Z,157.53
2019-02-15T10:31:52.138Z,157.43
2019-02-15T10:37:47.106Z,184.68
2019-02-15T10:43:42.113Z,139.4
2019-02-15T10:49:37.136Z,134.04
2019-02-15T10:55:32.096Z,78.57
2019-02-15T11:01:27.132Z,59.86
2019-02-15T11:07:22.137Z,60.38
2019-02-15T11:13:17.154Z,59.33
2019-02-15T11:19:12.173Z,50.46
2019-02-15T11:25:07.145Z,40.69
2019-02-15T11:31:02.138Z,32.33
2019-02-15T11:36:57.161Z,24.85
2019-02-15T11:42:52.134Z,22.22
2019-02-15T11:48:47.132Z,23.06
2019-02-15T11:54:42.147Z,17.77
2019-02-15T12:00:37.165Z,16.46
2019-02-15T12:06:32.152Z,20.2
2019-02-15T12:12:27.145Z,18.52
2019-02-15T12:18:22.163Z,17.19
2019-02-15T12:24:17.194Z,15.42
2019-02-15T12:30:12.230Z,15.98
2019-02-15T12:36:07.168Z,15.01
2019-02-15T12:42:02.159Z,16.2
2019-02-15T12:47:57.235Z,15.64
2019-02-15T12:53:52.183Z,25.68
2019-02-15T12:59:47.188Z,65.95
2019-02-15T13:05:42.221Z,22.33
2019-02-15T13:11:37.208Z,16.51
2019-02-15T13:17:32.222Z,16.45
2019-02-15T13:23:27.192Z,15.16
2019-02-15T13:29:22.210Z,21.87
2019-02-15T13:35:17.212Z,19.81
2019-02-15T13:41:12.224Z,16.98
2019-02-15T13:47:07.210Z,16.5
2019-02-15T13:53:02.231Z,14.95
2019-02-15T13:58:57.198Z,14.73
2019-02-15T14:04:52.254Z,12.6
2019-02-15T14:10:47.235Z,13.08
2019-02-15T14:16:42.262Z,13.39
2019-02-15T14:22:37.226Z,12.55
2019-02-15T14:28:32.245Z,12.26
2019-02-15T14:34:27.239Z,14.3
2019-02-15T14:40:22.227Z,11.66
2019-02-15T14:46:17.283Z,14.54
2019-02-15T14:52:12.244Z,13.08
2019-02-15T14:58:07.241Z,11.84
2019-02-15T15:04:02.233Z,13.53
2019-02-15T15:09:57.282Z,13.41
2019-02-15T15:15:52.260Z,10.57
2019-02-15T15:21:47.257Z,12
2019-02-15T15:27:42.294Z,11.73
2019-02-15T15:33:37.263Z,8.97
2019-02-15T15:39:32.264Z,6.79
2019-02-15T15:45:27.379Z,7.43
2019-02-15T15:51:22.310Z,8.63
2019-02-15T15:57:17.304Z,9.82
2019-02-15T16:03:12.292Z,11.56
2019-02-15T16:09:07.296Z,12.94
2019-02-15T16:15:02.337Z,10.59
2019-02-15T16:20:57.306Z,14.07
2019-02-15T16:26:52.293Z,9.94
2019-02-15T16:32:47.323Z,12.09
2019-02-15T16:38:42.296Z,14.09
2019-02-15T16:44:37.314Z,14.09
2019-02-15T16:50:32.296Z,15.8
2019-02-15T16:56:27.318Z,15.62
2019-02-15T17:02:22.392Z,13.67
2019-02-15T17:08:17.327Z,15.55
2019-02-15T17:14:12.319Z,20.21
2019-02-15T17:20:07.323Z,16.46
2019-02-15T17:26:02.340Z,31.1
2019-02-15T17:31:57.343Z,20.01
2019-02-15T17:37:52.366Z,19.52
2019-02-15T17:43:47.329Z,20.27
2019-02-15T17:49:42.333Z,24.33
2019-02-15T17:55:37.381Z,30.89
2019-02-15T18:01:32.339Z,24.54
2019-02-15T18:07:27.332Z,19.59
2019-02-15T18:13:22.396Z,15.46
2019-02-15T18:19:17.358Z,18.52
2019-02-15T18:25:12.404Z,13.51
2019-02-15T18:31:07.358Z,13.41
2019-02-15T18:37:02.376Z,10.93
2019-02-15T18:42:57.373Z,14.24
2019-02-15T18:48:52.355Z,12.19
2019-02-15T18:54:47.354Z,12.07
2019-02-15T19:00:42.383Z,11.31
2019-02-15T19:06:37.390Z,9.96
2019-02-15T19:12:32.397Z,8.67
2019-02-15T19:18:27.420Z,8.93
2019-02-15T19:24:22.385Z,10.02
2019-02-15T19:30:17.385Z,12.51
2019-02-15T19:36:12.385Z,9.57
2019-02-15T19:42:07.428Z,10.85
2019-02-15T19:48:02.449Z,10.16
2019-02-15T19:53:58.298Z,8.1
2019-02-15T19:59:54.108Z,8.76
2019-02-15T20:05:47.408Z,35.48
2019-02-15T20:11:42.443Z,10.37
2019-02-15T20:17:37.460Z,8.77
2019-02-15T20:23:32.418Z,5.54
2019-02-15T20:29:27.446Z,8.67
2019-02-15T20:35:22.418Z,8.54
2019-02-15T20:41:17.407Z,10.35
2019-02-15T20:47:12.510Z,8.14
2019-02-15T20:53:07.433Z,10.65
2019-02-15T20:59:02.453Z,9.05
2019-02-15T21:04:57.457Z,7.85
2019-02-15T21:10:54.911Z,5.61
2019-02-15T21:16:47.446Z,7.49
2019-02-15T21:22:42.443Z,5.85
2019-02-15T21:28:37.442Z,4.2
2019-02-15T21:34:32.537Z,4.87
2019-02-15T21:40:27.460Z,5.7
2019-02-15T21:46:22.469Z,6.11
2019-02-15T21:52:17.515Z,4.65
2019-02-15T21:58:12.513Z,6.27
2019-02-15T22:04:07.496Z,6.95
2019-02-15T22:10:02.467Z,5.23
2019-02-15T22:15:57.476Z,5.62
2019-02-15T22:21:52.486Z,4.76
2019-02-15T22:27:47.508Z,5.41
2019-02-15T22:33:42.486Z,5.07
2019-02-15T22:39:37.489Z,4.43
2019-02-15T22:45:32.487Z,6.54
2019-02-15T22:51:27.498Z,6.24
2019-02-15T22:57:22.510Z,7.14
2019-02-15T23:03:17.500Z,4.41
2019-02-15T23:09:12.566Z,6
2019-02-15T23:15:07.486Z,5.03
2019-02-15T23:21:02.584Z,3.51
2019-02-15T23:26:57.502Z,9.9
2019-02-15T23:32:52.541Z,14.99
2019-02-15T23:38:47.543Z,14.02
2019-02-15T23:44:42.528Z,18.21
2019-02-15T23:50:37.520Z,22.09
2019-02-15T23:56:32.529Z,19.14
